Friday, May 25, 2018, 8:05 PM EDT
Back to Local

KAFN, Jaffrey Muni-silver Ranch

Location: Jaffrey, NH, United States Lat: 42.8
Local Time: 8:05 PM EDT ( 0:05 GMT) Lon: -72
Time Zone: US/Eastern Elev: 1040 ft

Show me the last for .
Show Coded

Time T Td Feel RH Dir Speed Gust Alt SLP Vis Weather Sky Remarks
2018-05-25 19:52 80 47 - 31 270° 7 - 29.79 29.79 10 CLR 6-hr Min Temp (8pm): 80.1°F
6-hr Max Temp (8pm): 87.1°F
2018-05-25 18:52 81 45 - 28 260° 6 - 29.79 29.79 10 CLR None
2018-05-25 17:52 85 43 - 23 250° 9 18 29.78 29.78 10 FEW085 BKN110 None
2018-05-25 16:52 85 42 - 22 230° 15 22 29.80 29.79 10 BKN110 None
2018-05-25 15:52 84 42 - 22 220° 12 21 29.81 29.81 10 BKN120 None
2018-05-25 14:52 84 43 - 23 250° 8 24 29.83 29.83 10 CLR None
2018-05-25 13:52 84 42 - 22 280° 14 22 29.85 29.84 10 CLR 6-hr Min Temp (2pm): 59.0°F
6-hr Max Temp (2pm): 84.0°F
2018-05-25 12:52 83 44 - 25 240° 14 28 29.87 29.86 10 CLR None
2018-05-25 11:52 81 48 - 31 270° 15 24 29.90 29.90 10 CLR None
2018-05-25 10:52 78 49 - 35 230° 9 - 29.92 29.93 10 CLR None
2018-05-25 09:52 74 50 76 42 240° 8 - 29.95 29.96 10 CLR None
2018-05-25 08:52 65 51 - 60 170° 6 - 29.97 29.98 10 CLR None
2018-05-25 07:52 59 50 - 72 200° 9 - 29.98 29.99 10 CLR 6-hr Min Temp (8am): 53.1°F
6-hr Max Temp (8am): 59.0°F
2018-05-25 06:52 54 51 - 89 190° 9 - 29.99 30.00 10 CLR None
2018-05-25 05:52 53 50 - 89 200° 8 - 30.00 30.01 10 CLR None
2018-05-25 04:52 53 51 - 92 200° 6 - 29.99 30.00 10 CLR None
2018-05-25 03:52 54 51 - 89 220° 6 - 30.01 30.01 10 CLR None
2018-05-25 02:52 56 51 - 83 210° 6 - 30.01 30.02 10 CLR None
2018-05-25 01:52 57 50 - 77 200° 8 - 30.03 30.03 10 CLR 6-hr Min Temp (2am): 53.1°F
6-hr Max Temp (2am): 66.0°F
2018-05-25 00:52 55 48 - 77 190° 7 - 30.04 30.05 10 CLR 24-hr Min Temp (1am): 45.0°F
24-hr Max Temp (1am): 75.9°F
2018-05-24 23:52 59 45 - 59 220° 5 - 30.05 30.06 10 CLR None
2018-05-24 22:52 54 49 - 83 180° 7 - 30.06 30.07 10 CLR None
2018-05-24 21:52 55 48 - 77 - Calm - 30.06 30.07 10 CLR None
2018-05-24 20:52 59 49 - 69 - Calm - 30.06 30.07 10 CLR None

Support USWX by starting your Amazon purchase here.